Time;durP1;ratioP1;P1;durP2;ratioP2;P2;SDS_P1;SDS_P2;PMS_P1;PMS_P2;Temp;Humidity;BMP_temperature;BMP_pressure;BME280_temperature;BME280_humidity;BME280_pressure;Samples;Min_cycle;Max_cycle;Signal;HPM_P1;HPM_P2
2022/05/26 00:01:21;;;;;;;6.05;5.20;;;;;;;;;;10277510;28;20462;-58
2022/05/26 00:06:21;;;;;;;7.00;5.05;;;;;;;;;;10277506;28;20080;-58
2022/05/26 00:11:22;;;;;;;5.70;5.10;;;;;;;;;;10277325;28;20081;-58
2022/05/26 00:16:20;;;;;;;5.43;4.93;;;;;;;;;;10276391;28;20065;-58
2022/05/26 00:21:19;;;;;;;7.85;6.05;;;;;;;;;;10276749;28;20049;-58
2022/05/26 00:26:18;;;;;;;6.57;5.18;;;;;;;;;;10276805;28;20184;-58
2022/05/26 00:31:18;;;;;;;9.02;6.07;;;;;;;;;;10276663;28;20080;-58
2022/05/26 00:36:17;;;;;;;7.07;5.43;;;;;;;;;;10276282;28;20061;-58
2022/05/26 00:41:16;;;;;;;7.03;5.45;;;;;;;;;;10276507;28;20080;-58
2022/05/26 00:46:17;;;;;;;11.63;5.72;;;;;;;;;;10274962;28;20081;-58
2022/05/26 00:51:17;;;;;;;6.10;4.85;;;;;;;;;;10275537;28;20084;-58
2022/05/26 00:56:18;;;;;;;5.05;4.65;;;;;;;;;;10275447;28;20093;-58
2022/05/26 01:01:18;;;;;;;6.05;5.50;;;;;;;;;;10274988;28;20084;-58
2022/05/26 01:06:20;;;;;;;6.15;5.38;;;;;;;;;;10274906;28;20077;-58
2022/05/26 01:11:18;;;;;;;6.78;5.50;;;;;;;;;;10274998;28;20072;-58
2022/05/26 01:16:21;;;;;;;5.45;4.82;;;;;;;;;;10275107;28;20049;-57
2022/05/26 01:21:23;;;;;;;5.38;4.97;;;;;;;;;;10274696;28;20076;-58
2022/05/26 01:26:27;;;;;;;6.10;5.38;;;;;;;;;;10274100;28;20084;-57
2022/05/26 01:31:34;;;;;;;7.97;5.38;;;;;;;;;;10274152;28;20057;-58
2022/05/26 01:36:37;;;;;;;5.85;4.93;;;;;;;;;;10272880;28;20076;-57
2022/05/26 01:41:45;;;;;;;8.50;6.10;;;;;;;;;;10271384;28;20052;-58
2022/05/26 01:46:47;;;;;;;7.65;5.82;;;;;;;;;;10273480;28;20076;-58
2022/05/26 01:51:52;;;;;;;6.05;5.55;;;;;;;;;;10273052;28;20084;-58
2022/05/26 01:56:53;;;;;;;7.55;5.53;;;;;;;;;;10273869;28;20071;-58
2022/05/26 02:01:55;;;;;;;6.28;5.30;;;;;;;;;;10273791;28;20430;-59
2022/05/26 02:06:55;;;;;;;5.95;5.43;;;;;;;;;;10279823;28;20505;-59
2022/05/26 02:11:56;;;;;;;5.90;5.40;;;;;;;;;;10272815;28;20076;-59
2022/05/26 02:16:58;;;;;;;5.97;5.35;;;;;;;;;;10293530;28;20075;-59
2022/05/26 02:22:01;;;;;;;8.98;5.93;;;;;;;;;;10266469;28;20049;-59
2022/05/26 02:27:00;;;;;;;6.20;5.50;;;;;;;;;;10272647;28;20091;-59
2022/05/26 02:31:59;;;;;;;11.95;6.38;;;;;;;;;;10272431;28;20044;-58
2022/05/26 02:36:59;;;;;;;6.50;5.15;;;;;;;;;;10266226;28;20044;-58
2022/05/26 02:41:58;;;;;;;9.05;5.80;;;;;;;;;;10265864;28;20055;-59
2022/05/26 02:47:03;;;;;;;14.77;5.90;;;;;;;;;;10264639;28;20496;-59
2022/05/26 02:52:04;;;;;;;10.48;5.53;;;;;;;;;;10266479;28;20068;-59
2022/05/26 02:57:09;;;;;;;7.32;6.25;;;;;;;;;;10271731;28;20503;-58
2022/05/26 03:02:11;;;;;;;6.55;5.82;;;;;;;;;;10270747;28;20079;-58
2022/05/26 03:07:11;;;;;;;9.43;6.45;;;;;;;;;;10271029;28;20073;-58
2022/05/26 03:12:20;;;;;;;8.48;6.00;;;;;;;;;;10271438;28;20053;-58
2022/05/26 03:17:20;;;;;;;9.70;6.22;;;;;;;;;;10276672;28;20049;-59
2022/05/26 03:22:19;;;;;;;7.20;6.38;;;;;;;;;;10276586;28;20049;-58
2022/05/26 03:27:17;;;;;;;9.82;7.13;;;;;;;;;;10275941;28;20087;-58
2022/05/26 03:32:16;;;;;;;7.60;6.63;;;;;;;;;;10271360;28;20084;-58
2022/05/26 03:42:31;;;;;;;15.07;13.27;;;;;;;;;;10270888;28;20064;-59
2022/05/26 03:47:30;;;;;;;12.70;11.20;;;;;;;;;;10269957;28;20084;-58
2022/05/26 03:52:30;;;;;;;11.13;8.65;;;;;;;;;;10270832;28;20072;-58
2022/05/26 03:57:29;;;;;;;11.45;7.47;;;;;;;;;;10270391;28;20072;-58
2022/05/26 04:02:27;;;;;;;13.70;6.95;;;;;;;;;;10270483;28;20083;-59
2022/05/26 04:07:26;;;;;;;8.45;7.63;;;;;;;;;;10269863;28;20080;-59
2022/05/26 04:12:25;;;;;;;14.73;9.95;;;;;;;;;;10268791;28;20450;-59
2022/05/26 04:17:24;;;;;;;13.18;10.13;;;;;;;;;;10277984;28;20509;-59
2022/05/26 04:22:23;;;;;;;11.10;7.30;;;;;;;;;;10277697;28;20083;-58
2022/05/26 04:27:22;;;;;;;14.40;8.93;;;;;;;;;;10277147;28;20088;-58
2022/05/26 04:32:22;;;;;;;13.93;8.07;;;;;;;;;;10276983;28;20072;-59
2022/05/26 04:37:21;;;;;;;12.45;7.88;;;;;;;;;;10277119;28;20083;-58
2022/05/26 04:42:19;;;;;;;9.35;6.88;;;;;;;;;;10270191;28;20065;-58
2022/05/26 04:47:18;;;;;;;20.90;8.10;;;;;;;;;;10277925;28;20076;-58
2022/05/26 04:52:20;;;;;;;14.40;7.82;;;;;;;;;;10281419;28;20084;-58
2022/05/26 04:57:19;;;;;;;18.88;8.18;;;;;;;;;;10281282;28;20045;-58
2022/05/26 05:02:19;;;;;;;14.48;7.60;;;;;;;;;;10274722;28;20060;-59
2022/05/26 05:07:19;;;;;;;11.45;8.40;;;;;;;;;;10275761;28;20458;-59
2022/05/26 05:12:19;;;;;;;7.82;7.00;;;;;;;;;;10275842;28;20081;-59
2022/05/26 05:17:18;;;;;;;11.13;8.68;;;;;;;;;;10275091;28;20057;-59
2022/05/26 05:22:20;;;;;;;13.07;6.93;;;;;;;;;;10255472;28;20501;-58
2022/05/26 05:27:21;;;;;;;9.68;7.85;;;;;;;;;;10266691;28;20087;-59
2022/05/26 05:32:21;;;;;;;14.52;11.10;;;;;;;;;;10268405;28;20072;-59
2022/05/26 05:37:19;;;;;;;11.25;8.13;;;;;;;;;;10268028;28;20072;-61
2022/05/26 05:42:19;;;;;;;12.30;7.93;;;;;;;;;;10260749;28;20064;-61
2022/05/26 05:47:18;;;;;;;8.32;7.63;;;;;;;;;;10267069;28;20094;-59
2022/05/26 05:52:18;;;;;;;9.73;8.82;;;;;;;;;;10268863;28;20080;-59
2022/05/26 05:57:16;;;;;;;8.55;7.35;;;;;;;;;;10288526;28;20073;-59
2022/05/26 06:02:16;;;;;;;6.15;5.55;;;;;;;;;;10276004;28;20087;-58
2022/05/26 06:07:31;;;;;;;6.50;5.90;;;;;;;;;;10271829;28;20076;-59
2022/05/26 06:12:29;;;;;;;9.75;5.85;;;;;;;;;;10271921;28;20106;-60
2022/05/26 06:17:29;;;;;;;6.10;5.47;;;;;;;;;;10268692;28;20076;-60
2022/05/26 06:22:29;;;;;;;7.68;5.45;;;;;;;;;;10267658;28;20068;-57
2022/05/26 06:38:01;;;;;;;10.50;5.68;;;;;;;;;;10265971;28;20069;-58
2022/05/26 06:43:00;;;;;;;8.45;6.55;;;;;;;;;;10268413;28;20064;-58
2022/05/26 06:47:59;;;;;;;13.00;6.95;;;;;;;;;;10270047;28;20080;-58
2022/05/26 06:52:58;;;;;;;13.90;6.43;;;;;;;;;;10271940;28;20068;-58
2022/05/26 06:57:56;;;;;;;13.02;6.78;;;;;;;;;;10272135;28;20540;-58
2022/05/26 07:02:54;;;;;;;11.13;5.10;;;;;;;;;;10272489;28;20049;-60
2022/05/26 07:07:54;;;;;;;6.30;5.60;;;;;;;;;;10270834;28;20037;-59
2022/05/26 07:12:53;;;;;;;6.50;4.82;;;;;;;;;;10269892;28;20080;-59
2022/05/26 07:17:51;;;;;;;6.38;5.43;;;;;;;;;;10271773;28;20502;-61
2022/05/26 07:22:50;;;;;;;7.63;5.60;;;;;;;;;;10271342;28;20091;-61
2022/05/26 07:27:49;;;;;;;18.00;12.98;;;;;;;;;;10270891;28;20463;-61
2022/05/26 07:32:48;;;;;;;10.65;8.25;;;;;;;;;;10246696;28;20085;-63
2022/05/26 07:43:04;;;;;;;15.35;12.00;;;;;;;;;;10235072;28;20046;-63
2022/05/26 07:48:03;;;;;;;10.93;6.43;;;;;;;;;;10236870;28;20049;-63
2022/05/26 07:53:01;;;;;;;7.65;5.03;;;;;;;;;;10242997;28;20048;-63
2022/05/26 07:58:00;;;;;;;9.27;5.82;;;;;;;;;;10242841;28;20052;-63
2022/05/26 08:02:59;;;;;;;6.20;4.40;;;;;;;;;;10242204;28;20080;-63
2022/05/26 08:07:58;;;;;;;9.85;5.22;;;;;;;;;;10242438;28;20057;-63
2022/05/26 08:12:56;;;;;;;7.30;3.90;;;;;;;;;;10242015;28;20073;-63
2022/05/26 08:18:02;;;;;;;6.50;5.15;;;;;;;;;;10241996;28;20079;-66
2022/05/26 08:23:03;;;;;;;7.90;5.82;;;;;;;;;;10242053;28;20049;-64
2022/05/26 08:28:01;;;;;;;4.68;3.95;;;;;;;;;;10241280;28;20080;-64
2022/05/26 08:32:59;;;;;;;5.47;4.18;;;;;;;;;;10240413;28;20065;-63
2022/05/26 08:37:59;;;;;;;9.10;4.20;;;;;;;;;;10241500;28;20080;-64
2022/05/26 08:42:57;;;;;;;8.18;3.45;;;;;;;;;;10241180;28;20057;-64
2022/05/26 08:47:56;;;;;;;8.13;3.35;;;;;;;;;;10240045;28;20526;-64
2022/05/26 08:52:58;;;;;;;6.55;3.65;;;;;;;;;;10239688;28;20080;-64
2022/05/26 08:58:01;;;;;;;7.30;3.40;;;;;;;;;;10240722;28;20068;-64
2022/05/26 09:03:00;;;;;;;7.35;3.65;;;;;;;;;;10239425;28;20053;-64
2022/05/26 09:13:18;;;;;;;4.00;3.63;;;;;;;;;;10240038;28;20069;-64
2022/05/26 09:18:17;;;;;;;18.90;3.90;;;;;;;;;;10239984;28;20073;-63
2022/05/26 09:23:21;;;;;;;7.00;4.53;;;;;;;;;;10240018;28;20076;-64
2022/05/26 09:28:19;;;;;;;;;;;;;;;;;;10238863;28;20096;-64
2022/05/26 09:33:21;;;;;;;9.02;4.60;;;;;;;;;;10238551;28;19968;-64
2022/05/26 09:38:20;;;;;;;14.23;4.70;;;;;;;;;;10238427;28;20049;-64
2022/05/26 09:43:23;;;;;;;6.03;5.32;;;;;;;;;;10237783;28;20085;-64
2022/05/26 09:48:27;;;;;;;6.45;4.57;;;;;;;;;;10237522;28;20080;-64
2022/05/26 09:53:30;;;;;;;11.50;4.78;;;;;;;;;;10237854;28;20084;-65
2022/05/26 09:58:30;;;;;;;10.30;5.00;;;;;;;;;;10237363;28;20045;-64
2022/05/26 10:03:43;;;;;;;13.70;4.57;;;;;;;;;;10237062;28;20053;-64
2022/05/26 10:08:46;;;;;;;6.32;4.60;;;;;;;;;;10234570;28;20099;-64
2022/05/26 10:13:48;;;;;;;;;;;;;;;;;;10237068;28;20072;-64
2022/05/26 10:19:05;;;;;;;10.23;4.95;;;;;;;;;;10236611;28;19932;-64
2022/05/26 10:24:24;;;;;;;15.88;5.22;;;;;;;;;;10236388;28;20050;-64
2022/05/26 10:29:32;;;;;;;8.77;5.25;;;;;;;;;;10231835;28;20119;-64
2022/05/26 10:34:36;;;;;;;6.30;5.53;;;;;;;;;;10236109;28;20046;-64
2022/05/26 10:39:47;;;;;;;10.30;4.80;;;;;;;;;;10236216;28;20084;-64
2022/05/26 10:44:57;;;;;;;8.43;5.20;;;;;;;;;;10236191;28;20052;-63
2022/05/26 10:49:59;;;;;;;11.05;4.82;;;;;;;;;;10235642;28;20084;-64
2022/05/26 10:55:01;;;;;;;11.73;4.68;;;;;;;;;;10235879;28;20045;-64
2022/05/26 11:00:04;;;;;;;8.13;4.80;;;;;;;;;;10235876;28;20060;-64
2022/05/26 11:05:04;;;;;;;8.48;4.80;;;;;;;;;;10235044;28;20077;-65
2022/05/26 11:10:05;;;;;;;7.47;4.40;;;;;;;;;;10235438;28;20083;-64
2022/05/26 11:20:23;;;;;;;6.97;3.00;;;;;;;;;;10235030;28;20403;-64
2022/05/26 11:25:24;;;;;;;7.85;3.20;;;;;;;;;;10240869;28;20049;-64
2022/05/26 11:36:09;;;;;;;11.73;3.87;;;;;;;;;;10239217;28;20053;-64
2022/05/26 11:41:08;;;;;;;10.45;3.45;;;;;;;;;;10243218;28;20056;-64
2022/05/26 11:46:10;;;;;;;7.75;2.72;;;;;;;;;;10242966;28;20045;-64
2022/05/26 11:51:42;;;;;;;12.43;2.67;;;;;;;;;;10242620;28;20076;-64
2022/05/26 11:56:48;;;;;;;4.88;2.67;;;;;;;;;;10101699;28;20094;-64
2022/05/26 12:01:48;;;;;;;6.20;2.80;;;;;;;;;;10204789;28;20045;-64
2022/05/26 12:06:54;;;;;;;8.07;2.50;;;;;;;;;;10242278;28;20046;-64
2022/05/26 12:11:57;;;;;;;11.05;3.05;;;;;;;;;;10242224;28;20077;-65
2022/05/26 12:17:14;;;;;;;7.63;2.97;;;;;;;;;;10241962;28;20049;-65
2022/05/26 12:22:20;;;;;;;11.95;2.95;;;;;;;;;;10241857;28;20053;-64
2022/05/26 12:27:37;;;;;;;7.05;2.92;;;;;;;;;;10241517;28;20435;-65
2022/05/26 12:32:37;;;;;;;8.13;2.92;;;;;;;;;;10241491;28;20091;-64
2022/05/26 12:37:44;;;;;;;12.75;4.15;;;;;;;;;;10240877;28;20083;-65
2022/05/26 12:42:57;;;;;;;9.55;3.35;;;;;;;;;;10241249;28;20061;-64
2022/05/26 12:48:08;;;;;;;6.13;3.03;;;;;;;;;;10239029;28;20089;-64
2022/05/26 12:53:12;;;;;;;6.50;3.65;;;;;;;;;;10240932;28;20088;-65
2022/05/26 12:58:18;;;;;;;5.97;2.75;;;;;;;;;;10239745;28;20423;-64
2022/05/26 13:03:23;;;;;;;8.73;2.60;;;;;;;;;;10240230;28;20418;-64
2022/05/26 13:08:24;;;;;;;6.45;2.85;;;;;;;;;;10239323;28;20057;-66
2022/05/26 13:13:25;;;;;;;11.30;2.85;;;;;;;;;;10239533;28;20052;-64
2022/05/26 13:18:28;;;;;;;5.43;2.90;;;;;;;;;;10239545;28;20051;-64
2022/05/26 13:23:29;;;;;;;4.37;2.40;;;;;;;;;;10238922;28;20073;-65
2022/05/26 13:28:29;;;;;;;7.55;3.75;;;;;;;;;;10238988;28;20091;-64
2022/05/26 13:33:48;;;;;;;4.78;2.42;;;;;;;;;;10238815;28;20498;-65
2022/05/26 13:38:48;;;;;;;11.82;3.95;;;;;;;;;;10248213;28;20091;-65
2022/05/26 13:43:47;;;;;;;5.60;3.00;;;;;;;;;;10272504;28;20487;-64
2022/05/26 13:48:45;;;;;;;9.13;4.00;;;;;;;;;;10274477;28;20604;-64
2022/05/26 13:53:45;;;;;;;9.48;3.33;;;;;;;;;;10274235;28;20099;-65
2022/05/26 13:58:46;;;;;;;6.78;3.72;;;;;;;;;;10276146;28;20086;-65
2022/05/26 14:03:53;;;;;;;8.75;3.78;;;;;;;;;;10274048;28;20072;-65
2022/05/26 14:08:52;;;;;;;6.15;3.25;;;;;;;;;;10273232;28;20073;-65
2022/05/26 14:13:52;;;;;;;6.00;3.40;;;;;;;;;;10270472;28;20068;-64
2022/05/26 14:18:52;;;;;;;11.25;5.38;;;;;;;;;;10272481;28;20068;-65
2022/05/26 14:23:53;;;;;;;7.55;3.67;;;;;;;;;;10272824;28;20081;-65
2022/05/26 14:28:53;;;;;;;10.27;3.30;;;;;;;;;;10277140;28;20057;-64
2022/05/26 14:33:59;;;;;;;9.25;2.40;;;;;;;;;;10276430;28;20084;-64
2022/05/26 14:38:57;;;;;;;9.45;3.13;;;;;;;;;;10277155;28;20088;-64
2022/05/26 14:44:02;;;;;;;6.32;3.15;;;;;;;;;;10276761;28;20075;-65
2022/05/26 14:49:00;;;;;;;5.45;2.90;;;;;;;;;;10276367;28;20045;-64
2022/05/26 14:59:16;;;;;;;6.25;2.42;;;;;;;;;;10276462;28;20045;-64
2022/05/26 15:04:15;;;;;;;5.65;2.22;;;;;;;;;;10275814;28;20453;-64
2022/05/26 15:09:17;;;;;;;8.48;2.55;;;;;;;;;;10276303;28;20075;-64
2022/05/26 15:14:18;;;;;;;5.47;2.47;;;;;;;;;;10275669;28;20095;-64
2022/05/26 15:19:17;;;;;;;6.13;2.17;;;;;;;;;;10275481;28;20041;-65
2022/05/26 15:24:15;;;;;;;9.05;2.55;;;;;;;;;;10275181;28;20045;-65
2022/05/26 15:29:14;;;;;;;9.32;2.63;;;;;;;;;;10275244;28;20049;-64
2022/05/26 15:34:13;;;;;;;4.70;2.28;;;;;;;;;;10275045;28;20080;-65
2022/05/26 15:39:12;;;;;;;9.55;3.03;;;;;;;;;;10274194;28;20491;-64
2022/05/26 15:44:10;;;;;;;5.18;1.80;;;;;;;;;;10275066;28;20410;-65
2022/05/26 15:49:10;;;;;;;4.15;1.80;;;;;;;;;;10275502;28;20045;-63
2022/05/26 15:54:17;;;;;;;1.55;1.23;;;;;;;;;;10275187;28;20080;-64
2022/05/26 15:59:18;;;;;;;8.27;1.55;;;;;;;;;;10274903;28;20083;-64
2022/05/26 16:04:16;;;;;;;4.22;1.65;;;;;;;;;;10275538;28;20159;-63
2022/05/26 16:09:18;;;;;;;4.45;2.15;;;;;;;;;;10276487;28;20523;-63
2022/05/26 16:14:18;;;;;;;6.63;1.55;;;;;;;;;;10282027;28;20073;-63
2022/05/26 16:19:16;;;;;;;10.65;3.65;;;;;;;;;;10281960;28;20505;-63
2022/05/26 16:24:16;;;;;;;3.72;3.00;;;;;;;;;;10282137;28;20049;-62
2022/05/26 16:29:14;;;;;;;4.00;2.03;;;;;;;;;;10281653;28;20048;-63
2022/05/26 16:34:13;;;;;;;2.75;2.03;;;;;;;;;;10281321;28;20122;-62
2022/05/26 16:39:12;;;;;;;5.03;2.38;;;;;;;;;;10280976;28;20048;-63
2022/05/26 16:44:12;;;;;;;5.60;3.00;;;;;;;;;;10281030;28;20359;-63
2022/05/26 16:49:12;;;;;;;4.75;2.10;;;;;;;;;;10280639;28;20517;-63
2022/05/26 16:54:18;;;;;;;6.18;2.78;;;;;;;;;;10280807;28;20088;-63
2022/05/26 16:59:18;;;;;;;2.28;1.80;;;;;;;;;;10280583;28;20080;-63
2022/05/26 17:04:17;;;;;;;3.25;2.00;;;;;;;;;;10280639;28;20167;-63
2022/05/26 17:09:17;;;;;;;6.85;2.53;;;;;;;;;;10280041;28;20148;-63
2022/05/26 17:24:48;;;;;;;4.25;1.95;;;;;;;;;;10279529;28;20080;-63
2022/05/26 17:29:47;;;;;;;8.20;4.90;;;;;;;;;;10279688;28;20118;-63
2022/05/26 17:34:47;;;;;;;4.38;3.45;;;;;;;;;;10279183;28;20127;-64
2022/05/26 17:39:45;;;;;;;10.50;3.63;;;;;;;;;;10279000;28;20045;-63
2022/05/26 17:44:44;;;;;;;3.97;2.03;;;;;;;;;;10278932;28;20049;-63
2022/05/26 17:49:42;;;;;;;7.82;4.93;;;;;;;;;;10279378;28;20103;-63
2022/05/26 17:54:47;;;;;;;5.95;2.92;;;;;;;;;;10278814;28;20080;-63
2022/05/26 18:05:02;;;;;;;6.00;3.15;;;;;;;;;;10278514;28;20045;-62
2022/05/26 18:10:01;;;;;;;3.10;2.08;;;;;;;;;;10277538;28;20482;-62
2022/05/26 18:15:02;;;;;;;6.30;2.45;;;;;;;;;;10277731;28;20080;-62
2022/05/26 18:20:02;;;;;;;3.42;1.52;;;;;;;;;;10277542;28;20504;-63
2022/05/26 18:25:02;;;;;;;6.38;2.40;;;;;;;;;;10277464;28;20052;-63
2022/05/26 18:30:00;;;;;;;3.50;2.28;;;;;;;;;;10277174;28;20538;-63
2022/05/26 18:35:00;;;;;;;11.07;2.22;;;;;;;;;;10276771;28;20077;-63
2022/05/26 18:40:06;;;;;;;6.70;1.88;;;;;;;;;;10277433;28;20045;-62
2022/05/26 18:45:05;;;;;;;3.20;1.77;;;;;;;;;;10276711;28;20049;-63
2022/05/26 18:50:03;;;;;;;3.63;1.80;;;;;;;;;;10276015;28;20071;-63
2022/05/26 18:55:02;;;;;;;8.93;2.15;;;;;;;;;;10275743;28;20077;-63
2022/05/26 19:00:02;;;;;;;5.45;1.75;;;;;;;;;;10276228;28;20080;-63
2022/05/26 19:05:20;;;;;;;3.00;1.70;;;;;;;;;;10276153;28;20045;-64
2022/05/26 19:10:19;;;;;;;3.60;1.52;;;;;;;;;;10275978;28;20041;-63
2022/05/26 19:15:19;;;;;;;4.60;1.83;;;;;;;;;;10275623;28;20049;-63
2022/05/26 19:20:17;;;;;;;4.32;1.67;;;;;;;;;;10271486;28;20048;-63
2022/05/26 19:25:16;;;;;;;7.50;1.63;;;;;;;;;;10247403;28;20053;-63
2022/05/26 19:30:17;;;;;;;2.10;1.73;;;;;;;;;;10234893;28;20045;-64
2022/05/26 19:35:18;;;;;;;4.53;1.52;;;;;;;;;;10234788;28;20073;-63
2022/05/26 19:40:16;;;;;;;3.30;1.65;;;;;;;;;;10234406;28;20041;-63
2022/05/26 19:45:14;;;;;;;10.35;1.95;;;;;;;;;;10271941;28;20045;-63
2022/05/26 19:50:15;;;;;;;3.63;1.20;;;;;;;;;;10281588;28;20482;-63
2022/05/26 19:55:14;;;;;;;1.33;1.13;;;;;;;;;;10283348;28;20467;-63
2022/05/26 20:00:29;;;;;;;6.03;1.13;;;;;;;;;;10257783;28;20045;-63
2022/05/26 20:05:31;;;;;;;4.80;1.25;;;;;;;;;;10275256;28;20080;-63
2022/05/26 20:10:31;;;;;;;4.75;1.58;;;;;;;;;;10282204;28;20052;-64
2022/05/26 20:15:29;;;;;;;4.68;2.05;;;;;;;;;;10273737;28;20068;-64
2022/05/26 20:20:28;;;;;;;2.15;1.50;;;;;;;;;;10276187;28;20076;-63
2022/05/26 20:25:26;;;;;;;3.80;1.92;;;;;;;;;;10281039;28;20060;-63
2022/05/26 20:30:26;;;;;;;4.47;1.45;;;;;;;;;;10281795;28;20063;-63
2022/05/26 20:35:24;;;;;;;4.72;1.30;;;;;;;;;;10277550;28;20073;-63
2022/05/26 20:40:23;;;;;;;5.85;1.80;;;;;;;;;;10276240;28;20072;-63
2022/05/26 20:45:21;;;;;;;3.25;1.33;;;;;;;;;;10277421;28;20083;-63
2022/05/26 20:50:21;;;;;;;5.53;1.27;;;;;;;;;;10279168;28;20171;-64
2022/05/26 20:55:20;;;;;;;4.15;1.33;;;;;;;;;;10279624;28;20076;-65
2022/05/26 21:00:18;;;;;;;5.47;1.48;;;;;;;;;;10280237;28;20072;-63
2022/05/26 21:05:16;;;;;;;5.80;1.42;;;;;;;;;;10279893;28;20057;-63
2022/05/26 21:10:16;;;;;;;6.32;1.73;;;;;;;;;;10276918;28;20075;-63
2022/05/26 21:15:15;;;;;;;4.32;1.42;;;;;;;;;;10278293;28;20068;-62
2022/05/26 21:20:14;;;;;;;1.85;1.25;;;;;;;;;;10280218;28;20073;-63
2022/05/26 21:25:13;;;;;;;3.20;1.60;;;;;;;;;;10279735;28;20052;-63
2022/05/26 21:30:13;;;;;;;3.60;1.45;;;;;;;;;;10275919;28;20084;-63
2022/05/26 21:35:12;;;;;;;3.00;1.42;;;;;;;;;;10275622;28;20081;-63
2022/05/26 21:40:11;;;;;;;5.18;1.60;;;;;;;;;;10275575;28;20090;-64
2022/05/26 21:45:11;;;;;;;2.90;1.40;;;;;;;;;;10278435;28;20506;-63
2022/05/26 21:50:11;;;;;;;2.47;1.10;;;;;;;;;;10278989;28;20045;-63
2022/05/26 21:55:10;;;;;;;5.22;1.60;;;;;;;;;;10278472;28;20475;-63
2022/05/26 22:00:09;;;;;;;1.23;1.02;;;;;;;;;;10278485;28;20068;-63
2022/05/26 22:10:44;;;;;;;3.05;1.42;;;;;;;;;;10277543;28;20069;-63
2022/05/26 22:15:44;;;;;;;2.47;1.58;;;;;;;;;;10277856;28;20068;-63
2022/05/26 22:20:46;;;;;;;3.08;2.40;;;;;;;;;;10277725;28;20049;-63
2022/05/26 22:25:45;;;;;;;4.50;2.15;;;;;;;;;;10277476;28;20170;-63
2022/05/26 22:30:45;;;;;;;10.70;6.28;;;;;;;;;;10277720;28;20053;-64
2022/05/26 22:35:46;;;;;;;16.23;12.50;;;;;;;;;;10277058;28;20077;-63
2022/05/26 22:40:46;;;;;;;12.32;6.40;;;;;;;;;;10277122;28;20064;-64
2022/05/26 22:45:44;;;;;;;5.05;4.55;;;;;;;;;;10277441;28;20056;-63
2022/05/26 22:50:44;;;;;;;6.40;2.75;;;;;;;;;;10276646;28;20482;-63
2022/05/26 22:55:44;;;;;;;10.90;2.72;;;;;;;;;;10276462;28;20079;-63
2022/05/26 23:00:44;;;;;;;8.35;3.45;;;;;;;;;;10276391;28;20406;-63
2022/05/26 23:05:42;;;;;;;5.57;4.15;;;;;;;;;;10276500;28;20052;-64
2022/05/26 23:10:41;;;;;;;5.65;3.28;;;;;;;;;;10276260;28;20073;-63
2022/05/26 23:15:41;;;;;;;4.95;3.60;;;;;;;;;;10276180;28;20077;-64
2022/05/26 23:20:39;;;;;;;1.98;1.50;;;;;;;;;;10275755;28;20148;-63
2022/05/26 23:25:38;;;;;;;6.03;2.30;;;;;;;;;;10275393;28;20423;-63
2022/05/26 23:30:38;;;;;;;4.57;2.00;;;;;;;;;;10276040;28;20068;-63
2022/05/26 23:35:38;;;;;;;2.78;1.83;;;;;;;;;;10275604;28;20495;-63
2022/05/26 23:45:53;;;;;;;2.63;1.90;;;;;;;;;;10274872;28;20450;-64
2022/05/26 23:50:53;;;;;;;2.97;1.83;;;;;;;;;;10275253;28;20509;-64
